Time;durP1;ratioP1;P1;durP2;ratioP2;P2;SDS_P1;SDS_P2;PMS_P1;PMS_P2;Temp;Humidity;BMP_temperature;BMP_pressure;BME280_temperature;BME280_humidity;BME280_pressure;Samples;Min_cycle;Max_cycle;Signal;HPM_P1;HPM_P2
2021/06/23 00:01:17;;;;;;;10.20;3.30;;;;;;;;;;5118119;28;20522;-71
2021/06/23 00:03:51;;;;;;;4.97;2.47;;;;;;;;;;5118393;28;20537;-71
2021/06/23 00:06:19;;;;;;;3.60;2.30;;;;;;;;;;5118963;28;20451;-71
2021/06/23 00:08:46;;;;;;;8.10;2.37;;;;;;;;;;5118212;28;20458;-70
2021/06/23 00:11:14;;;;;;;5.67;2.97;;;;;;;;;;5118478;28;21041;-70
2021/06/23 00:13:42;;;;;;;5.53;2.77;;;;;;;;;;5118231;28;20487;-70
2021/06/23 00:16:11;;;;;;;6.80;2.60;;;;;;;;;;5118058;28;20904;-70
2021/06/23 00:18:39;;;;;;;6.30;2.70;;;;;;;;;;5118351;28;20458;-70
2021/06/23 00:21:08;;;;;;;4.87;2.60;;;;;;;;;;5119042;28;20463;-71
2021/06/23 00:23:36;;;;;;;5.53;3.10;;;;;;;;;;5118372;28;20507;-70
2021/06/23 00:26:04;;;;;;;4.50;2.03;;;;;;;;;;5118128;28;20519;-71
2021/06/23 00:28:32;;;;;;;6.77;2.60;;;;;;;;;;5118028;28;20880;-70
2021/06/23 00:31:00;;;;;;;7.40;3.17;;;;;;;;;;5118163;28;20535;-71
2021/06/23 00:33:32;;;;;;;11.70;2.97;;;;;;;;;;5118065;28;20490;-70
2021/06/23 00:36:00;;;;;;;13.60;3.70;;;;;;;;;;5118637;28;20888;-70
2021/06/23 00:38:29;;;;;;;9.80;3.63;;;;;;;;;;5117783;28;20732;-70
2021/06/23 00:40:57;;;;;;;5.80;2.53;;;;;;;;;;5118117;28;20520;-70
2021/06/23 00:43:25;;;;;;;5.53;2.57;;;;;;;;;;5117306;28;20455;-70
2021/06/23 00:45:53;;;;;;;9.13;3.67;;;;;;;;;;5118187;28;20963;-71
2021/06/23 00:48:27;;;;;;;6.80;3.00;;;;;;;;;;5118091;28;20463;-72
2021/06/23 00:50:55;;;;;;;5.20;2.37;;;;;;;;;;5117583;28;20455;-72
2021/06/23 00:53:23;;;;;;;10.33;3.27;;;;;;;;;;5117422;28;20729;-72
2021/06/23 00:55:54;;;;;;;4.87;2.40;;;;;;;;;;5117575;28;20534;-71
2021/06/23 00:58:22;;;;;;;4.17;2.60;;;;;;;;;;5117617;28;20474;-72
2021/06/23 01:00:51;;;;;;;6.80;3.67;;;;;;;;;;5117879;28;20451;-72
2021/06/23 01:03:19;;;;;;;7.13;2.97;;;;;;;;;;5117377;28;20523;-71
2021/06/23 01:05:47;;;;;;;8.00;3.10;;;;;;;;;;5117375;28;20454;-72
2021/06/23 01:08:15;;;;;;;4.17;2.70;;;;;;;;;;5117638;28;20466;-72
2021/06/23 01:10:43;;;;;;;6.80;2.80;;;;;;;;;;5116829;28;20455;-72
2021/06/23 01:13:27;;;;;;;4.60;3.10;;;;;;;;;;5116667;28;20846;-72
2021/06/23 01:15:56;;;;;;;10.33;2.73;;;;;;;;;;5117259;28;20459;-71
2021/06/23 01:18:24;;;;;;;7.10;3.17;;;;;;;;;;5117363;28;20459;-72
2021/06/23 01:20:53;;;;;;;7.57;3.10;;;;;;;;;;5117646;28;20446;-71
2021/06/23 01:23:22;;;;;;;10.43;3.50;;;;;;;;;;5116805;28;20511;-71
2021/06/23 01:25:51;;;;;;;4.17;2.83;;;;;;;;;;5116756;28;20459;-71
2021/06/23 01:28:19;;;;;;;13.90;5.00;;;;;;;;;;5117220;28;20855;-71
2021/06/23 01:30:47;;;;;;;7.80;3.40;;;;;;;;;;5116660;28;20455;-72
2021/06/23 01:33:15;;;;;;;5.40;3.57;;;;;;;;;;5116708;28;20474;-71
2021/06/23 01:35:46;;;;;;;6.43;2.97;;;;;;;;;;5116716;28;20871;-71
2021/06/23 01:38:14;;;;;;;4.57;2.90;;;;;;;;;;5116959;28;20588;-71
2021/06/23 01:40:43;;;;;;;8.63;3.00;;;;;;;;;;5115984;28;20455;-71
2021/06/23 01:43:11;;;;;;;6.23;2.87;;;;;;;;;;5115992;28;20454;-71
2021/06/23 01:45:39;;;;;;;4.67;3.17;;;;;;;;;;5115595;28;20507;-71
2021/06/23 01:48:08;;;;;;;9.80;3.30;;;;;;;;;;5116116;28;20561;-70
2021/06/23 01:50:35;;;;;;;6.30;3.20;;;;;;;;;;5115627;28;20451;-71
2021/06/23 01:53:04;;;;;;;9.90;3.07;;;;;;;;;;5107222;28;20620;-71
2021/06/23 01:55:35;;;;;;;10.43;3.30;;;;;;;;;;5104378;28;20475;-71
2021/06/23 01:58:05;;;;;;;8.90;3.93;;;;;;;;;;5106293;28;20431;-71
2021/06/23 02:00:42;;;;;;;10.97;3.87;;;;;;;;;;5116474;28;20455;-71
2021/06/23 02:03:17;;;;;;;7.93;3.53;;;;;;;;;;5115212;28;20467;-71
2021/06/23 02:05:46;;;;;;;7.13;3.93;;;;;;;;;;5115836;28;20447;-71
2021/06/23 02:08:20;;;;;;;6.03;2.90;;;;;;;;;;5115854;28;20747;-71
2021/06/23 02:10:52;;;;;;;4.33;3.10;;;;;;;;;;5115392;28;20450;-71
2021/06/23 02:13:43;;;;;;;4.93;3.60;;;;;;;;;;5120112;28;20509;-72
2021/06/23 02:16:13;;;;;;;4.20;2.67;;;;;;;;;;5118807;28;20450;-71
2021/06/23 02:18:44;;;;;;;7.93;3.67;;;;;;;;;;5119598;28;20459;-71
2021/06/23 02:21:12;;;;;;;10.00;3.40;;;;;;;;;;5100399;28;20536;-71
2021/06/23 02:23:43;;;;;;;4.43;3.00;;;;;;;;;;5100365;28;20455;-71
2021/06/23 02:26:11;;;;;;;4.57;3.13;;;;;;;;;;5115557;28;20858;-71
2021/06/23 02:28:39;;;;;;;8.53;3.60;;;;;;;;;;5119756;28;20454;-71
2021/06/23 02:31:06;;;;;;;6.00;3.00;;;;;;;;;;5119869;28;20531;-71
2021/06/23 02:33:36;;;;;;;7.80;3.30;;;;;;;;;;5119915;28;20459;-71
2021/06/23 02:36:06;;;;;;;10.10;3.57;;;;;;;;;;5119954;28;20443;-71
2021/06/23 02:38:34;;;;;;;6.00;2.83;;;;;;;;;;5120094;28;20481;-71
2021/06/23 02:41:02;;;;;;;5.40;3.43;;;;;;;;;;5119511;28;20443;-71
2021/06/23 02:43:30;;;;;;;8.83;3.40;;;;;;;;;;5119915;28;20455;-71
2021/06/23 02:45:59;;;;;;;7.17;3.87;;;;;;;;;;5119559;28;20443;-71
2021/06/23 02:48:27;;;;;;;8.77;3.10;;;;;;;;;;5119536;28;20454;-71
2021/06/23 02:51:01;;;;;;;4.13;3.00;;;;;;;;;;5119521;28;20454;-71
2021/06/23 02:53:29;;;;;;;5.90;2.47;;;;;;;;;;5120154;28;20459;-71
2021/06/23 02:55:58;;;;;;;10.80;2.87;;;;;;;;;;5119905;28;20455;-71
2021/06/23 02:58:26;;;;;;;5.73;2.40;;;;;;;;;;5119645;28;20534;-72
2021/06/23 03:00:55;;;;;;;4.10;2.43;;;;;;;;;;5119748;28;20851;-71
2021/06/23 03:03:23;;;;;;;6.47;2.97;;;;;;;;;;5118633;28;20454;-71
2021/06/23 03:05:52;;;;;;;6.27;3.30;;;;;;;;;;5119380;28;20478;-71
2021/06/23 03:08:21;;;;;;;10.47;2.80;;;;;;;;;;5119586;28;20446;-71
2021/06/23 03:10:49;;;;;;;7.93;2.90;;;;;;;;;;5119676;28;20455;-71
2021/06/23 03:13:19;;;;;;;5.90;2.50;;;;;;;;;;5119768;28;20458;-71
2021/06/23 03:15:47;;;;;;;10.50;3.33;;;;;;;;;;5119218;28;20454;-70
2021/06/23 03:18:15;;;;;;;9.03;3.50;;;;;;;;;;5120326;28;20470;-71
2021/06/23 03:20:42;;;;;;;9.17;4.00;;;;;;;;;;5119046;28;20454;-71
2021/06/23 03:23:10;;;;;;;6.50;2.80;;;;;;;;;;5119685;28;20524;-71
2021/06/23 03:25:40;;;;;;;4.80;3.30;;;;;;;;;;5118292;28;20474;-71
2021/06/23 03:28:08;;;;;;;8.73;3.70;;;;;;;;;;5118889;28;20494;-71
2021/06/23 03:30:35;;;;;;;6.30;3.10;;;;;;;;;;5118927;28;20447;-71
2021/06/23 03:33:03;;;;;;;6.70;3.50;;;;;;;;;;5119393;28;20455;-71
2021/06/23 03:35:33;;;;;;;6.70;2.70;;;;;;;;;;5119181;28;20477;-71
2021/06/23 03:38:00;;;;;;;6.67;3.50;;;;;;;;;;5118653;28;20458;-71
2021/06/23 03:40:28;;;;;;;9.50;3.17;;;;;;;;;;5117694;28;20454;-71
2021/06/23 03:42:58;;;;;;;4.73;2.97;;;;;;;;;;5119101;28;20743;-71
2021/06/23 03:45:25;;;;;;;6.43;2.97;;;;;;;;;;5118171;28;20959;-71
2021/06/23 03:47:53;;;;;;;6.03;3.10;;;;;;;;;;5118028;28;20450;-71
2021/06/23 03:50:21;;;;;;;8.37;2.97;;;;;;;;;;5117599;28;20519;-71
2021/06/23 03:52:50;;;;;;;5.50;2.83;;;;;;;;;;5117626;28;20504;-71
2021/06/23 03:55:25;;;;;;;9.97;3.33;;;;;;;;;;5118561;28;20443;-71
2021/06/23 03:57:53;;;;;;;3.90;2.27;;;;;;;;;;5118345;28;20442;-71
2021/06/23 04:00:27;;;;;;;9.80;3.63;;;;;;;;;;5118548;28;20940;-71
2021/06/23 04:02:56;;;;;;;6.87;3.10;;;;;;;;;;5117753;28;20819;-72
2021/06/23 04:05:23;;;;;;;6.40;3.37;;;;;;;;;;5117979;28;20532;-71
2021/06/23 04:07:51;;;;;;;8.40;3.20;;;;;;;;;;5118664;28;20461;-72
2021/06/23 04:10:19;;;;;;;10.27;4.10;;;;;;;;;;5117955;28;20450;-71
2021/06/23 04:12:48;;;;;;;8.57;3.10;;;;;;;;;;5118025;28;20439;-71
2021/06/23 04:15:16;;;;;;;8.90;3.83;;;;;;;;;;5118456;28;20727;-71
2021/06/23 04:17:46;;;;;;;8.47;4.17;;;;;;;;;;5118533;28;20499;-71
2021/06/23 04:20:15;;;;;;;8.20;2.80;;;;;;;;;;5118377;28;20515;-71
2021/06/23 04:22:43;;;;;;;11.70;3.20;;;;;;;;;;5118367;28;20455;-71
2021/06/23 04:25:13;;;;;;;5.53;2.87;;;;;;;;;;5118004;28;20573;-71
2021/06/23 04:27:40;;;;;;;6.50;3.10;;;;;;;;;;5118030;28;20878;-71
2021/06/23 04:30:10;;;;;;;7.10;3.07;;;;;;;;;;5117916;28;20454;-71
2021/06/23 04:32:38;;;;;;;10.20;3.43;;;;;;;;;;5118229;28;20542;-72
2021/06/23 04:35:08;;;;;;;6.57;3.73;;;;;;;;;;5117397;28;20461;-71
2021/06/23 04:37:35;;;;;;;5.77;3.57;;;;;;;;;;5117577;28;20450;-71
2021/06/23 04:40:04;;;;;;;5.27;2.90;;;;;;;;;;5118062;28;20447;-72
2021/06/23 04:42:32;;;;;;;8.70;3.43;;;;;;;;;;5117913;28;20447;-72
2021/06/23 04:45:00;;;;;;;9.27;2.73;;;;;;;;;;5117758;28;20482;-71
2021/06/23 04:47:28;;;;;;;5.13;2.40;;;;;;;;;;5117828;28;20473;-71
2021/06/23 04:49:55;;;;;;;7.07;3.17;;;;;;;;;;5116301;28;20447;-71
2021/06/23 04:52:28;;;;;;;7.30;3.00;;;;;;;;;;5117089;28;20858;-72
2021/06/23 04:54:55;;;;;;;9.80;3.10;;;;;;;;;;5117390;28;20905;-71
2021/06/23 04:57:24;;;;;;;7.07;3.10;;;;;;;;;;5116985;28;20451;-71
2021/06/23 04:59:52;;;;;;;3.83;2.47;;;;;;;;;;5117572;28;20458;-72
2021/06/23 05:02:20;;;;;;;9.43;3.23;;;;;;;;;;5117230;28;20458;-71
2021/06/23 05:04:48;;;;;;;12.80;4.10;;;;;;;;;;5116984;28;20482;-71
2021/06/23 05:07:16;;;;;;;12.23;3.73;;;;;;;;;;5115712;28;20439;-71
2021/06/23 05:09:46;;;;;;;8.00;3.53;;;;;;;;;;5115956;28;20457;-71
2021/06/23 05:12:14;;;;;;;11.27;2.83;;;;;;;;;;5115763;28;20443;-71
2021/06/23 05:14:42;;;;;;;7.60;2.90;;;;;;;;;;5113516;28;21054;-71
2021/06/23 05:17:10;;;;;;;8.57;3.03;;;;;;;;;;5115664;28;21063;-71
2021/06/23 05:19:38;;;;;;;8.70;3.20;;;;;;;;;;5115227;28;20450;-71
2021/06/23 05:22:06;;;;;;;6.97;3.53;;;;;;;;;;5115098;28;20466;-71
2021/06/23 05:24:38;;;;;;;16.47;4.47;;;;;;;;;;5114813;28;20447;-71
2021/06/23 05:27:09;;;;;;;12.93;2.63;;;;;;;;;;5114875;28;20458;-71
2021/06/23 05:29:37;;;;;;;5.47;3.80;;;;;;;;;;5115000;28;20450;-71
2021/06/23 05:32:05;;;;;;;5.70;2.80;;;;;;;;;;5114472;28;20463;-71
2021/06/23 05:34:32;;;;;;;11.90;3.90;;;;;;;;;;5114264;28;20454;-71
2021/06/23 05:37:00;;;;;;;13.33;3.40;;;;;;;;;;5114722;28;20565;-71
2021/06/23 05:39:28;;;;;;;8.90;3.30;;;;;;;;;;5113221;28;20458;-72
2021/06/23 05:41:56;;;;;;;5.03;2.47;;;;;;;;;;5108443;28;20939;-72
2021/06/23 05:44:25;;;;;;;10.87;2.37;;;;;;;;;;5093508;28;20444;-71
2021/06/23 05:46:53;;;;;;;16.20;3.40;;;;;;;;;;5092111;28;20855;-72
2021/06/23 05:49:21;;;;;;;8.73;2.40;;;;;;;;;;5091708;28;20460;-71
2021/06/23 05:51:49;;;;;;;6.13;2.73;;;;;;;;;;5095317;28;20454;-72
2021/06/23 05:54:17;;;;;;;8.73;3.10;;;;;;;;;;5108599;28;20470;-71
2021/06/23 05:56:44;;;;;;;10.13;2.80;;;;;;;;;;5113704;28;20440;-71
2021/06/23 05:59:12;;;;;;;7.70;3.27;;;;;;;;;;5113206;28;20466;-72
2021/06/23 06:01:42;;;;;;;6.37;3.17;;;;;;;;;;5114206;28;20435;-71
2021/06/23 06:04:10;;;;;;;14.13;4.70;;;;;;;;;;5110314;28;20854;-71
2021/06/23 06:06:38;;;;;;;10.63;2.93;;;;;;;;;;5112978;28;20501;-71
2021/06/23 06:09:06;;;;;;;10.80;2.53;;;;;;;;;;5111469;28;21185;-71
2021/06/23 06:11:34;;;;;;;8.97;3.27;;;;;;;;;;5098910;28;20861;-71
2021/06/23 06:14:02;;;;;;;9.83;3.03;;;;;;;;;;5111826;28;20726;-71
2021/06/23 06:16:30;;;;;;;9.10;3.00;;;;;;;;;;5114091;28;20453;-71
2021/06/23 06:19:01;;;;;;;7.80;2.90;;;;;;;;;;5113901;28;20971;-72
2021/06/23 06:21:29;;;;;;;9.03;2.70;;;;;;;;;;5107865;28;20458;-71
2021/06/23 06:23:57;;;;;;;9.97;3.17;;;;;;;;;;5108131;28;20507;-71
2021/06/23 06:26:25;;;;;;;19.40;4.77;;;;;;;;;;5115114;28;20486;-71
2021/06/23 06:28:52;;;;;;;17.43;3.20;;;;;;;;;;5114360;28;20477;-72
2021/06/23 06:31:21;;;;;;;10.40;3.50;;;;;;;;;;5114231;28;20458;-72
2021/06/23 06:33:51;;;;;;;11.53;2.60;;;;;;;;;;5114468;28;20901;-71
2021/06/23 06:36:21;;;;;;;11.40;2.67;;;;;;;;;;5098897;28;20719;-71
2021/06/23 06:38:48;;;;;;;11.00;2.80;;;;;;;;;;5094280;28;20460;-71
2021/06/23 06:41:16;;;;;;;11.90;2.57;;;;;;;;;;5094128;28;20507;-71
2021/06/23 06:43:44;;;;;;;5.33;2.13;;;;;;;;;;5108524;28;20678;-71
2021/06/23 06:46:13;;;;;;;9.37;2.73;;;;;;;;;;5093696;28;20487;-71
2021/06/23 06:48:40;;;;;;;9.87;3.57;;;;;;;;;;5106628;28;20454;-70
2021/06/23 06:51:12;;;;;;;10.03;3.40;;;;;;;;;;5113993;28;20529;-72
2021/06/23 06:56:54;;;;;;;9.63;2.97;;;;;;;;;;5111684;28;20454;-74
2021/06/23 06:59:22;;;;;;;10.70;3.13;;;;;;;;;;5118233;28;20778;-71
2021/06/23 07:01:50;;;;;;;7.80;3.10;;;;;;;;;;5118272;27;20462;-72
2021/06/23 07:04:18;;;;;;;7.70;2.53;;;;;;;;;;5107359;28;20440;-72
2021/06/23 07:06:47;;;;;;;11.27;2.87;;;;;;;;;;5102999;28;20467;-70
2021/06/23 07:09:21;;;;;;;4.30;2.43;;;;;;;;;;5116494;27;20450;-71
2021/06/23 07:11:51;;;;;;;8.63;3.53;;;;;;;;;;5112742;28;20483;-71
2021/06/23 07:14:20;;;;;;;7.37;2.97;;;;;;;;;;5103156;28;20447;-72
2021/06/23 07:17:05;;;;;;;8.87;3.37;;;;;;;;;;5110147;28;20454;-71
2021/06/23 07:19:34;;;;;;;7.77;2.80;;;;;;;;;;5116576;28;20866;-71
2021/06/23 07:22:16;;;;;;;11.87;3.77;;;;;;;;;;5110710;27;20498;-71
2021/06/23 07:24:45;;;;;;;5.17;2.90;;;;;;;;;;5114221;27;20465;-71
2021/06/23 07:27:16;;;;;;;7.30;2.43;;;;;;;;;;5097118;28;20596;-72
2021/06/23 07:29:52;;;;;;;6.10;2.33;;;;;;;;;;5117097;27;20929;-72
2021/06/23 07:32:25;;;;;;;7.83;2.70;;;;;;;;;;5118363;27;20459;-72
2021/06/23 07:40:41;;;;;;;7.63;2.67;;;;;;;;;;5094971;28;20496;-74
2021/06/23 07:43:16;;;;;;;8.83;2.90;;;;;;;;;;5107196;27;20467;-70
2021/06/23 07:45:49;;;;;;;6.53;2.57;;;;;;;;;;5117366;27;20488;-72
2021/06/23 07:48:31;;;;;;;7.00;2.80;;;;;;;;;;5109080;27;20560;-73
2021/06/23 07:51:07;;;;;;;5.20;2.27;;;;;;;;;;5116014;27;20451;-70
2021/06/23 07:53:54;;;;;;;7.00;1.90;;;;;;;;;;5115184;27;20590;-70
2021/06/23 08:00:59;;;;;;;8.50;2.90;;;;;;;;;;5117926;27;20465;-71
2021/06/23 08:08:27;;;;;;;8.63;2.57;;;;;;;;;;5059214;28;20456;-72
2021/06/23 08:11:00;;;;;;;5.47;2.10;;;;;;;;;;5096218;28;20722;-72
2021/06/23 08:13:28;;;;;;;8.70;2.23;;;;;;;;;;5117376;27;20534;-71
2021/06/23 08:16:04;;;;;;;5.90;2.03;;;;;;;;;;5130089;27;20547;-72
2021/06/23 08:18:35;;;;;;;7.03;2.83;;;;;;;;;;5120280;27;20854;-73
2021/06/23 08:21:03;;;;;;;5.63;2.03;;;;;;;;;;5114566;27;20455;-72
2021/06/23 08:23:34;;;;;;;6.20;3.10;;;;;;;;;;5112631;27;20439;-72
2021/06/23 08:26:04;;;;;;;5.30;2.10;;;;;;;;;;5117463;27;20891;-72
2021/06/23 08:28:32;;;;;;;6.73;2.20;;;;;;;;;;5115856;27;20455;-71
2021/06/23 08:31:04;;;;;;;7.30;2.43;;;;;;;;;;5116608;27;20458;-72
2021/06/23 08:33:32;;;;;;;4.50;2.03;;;;;;;;;;5116585;27;20863;-71
2021/06/23 08:35:59;;;;;;;6.63;3.03;;;;;;;;;;5115702;27;20454;-71
2021/06/23 08:38:32;;;;;;;4.83;1.70;;;;;;;;;;5115888;27;20463;-71
2021/06/23 08:41:25;;;;;;;4.60;2.20;;;;;;;;;;5117645;27;20858;-71
2021/06/23 08:44:03;;;;;;;6.37;1.87;;;;;;;;;;5107408;27;20563;-71
2021/06/23 08:46:35;;;;;;;7.47;2.37;;;;;;;;;;5103575;28;20886;-71
2021/06/23 08:49:03;;;;;;;5.73;2.17;;;;;;;;;;5110174;27;20477;-71
2021/06/23 08:51:31;;;;;;;9.07;1.70;;;;;;;;;;5115474;27;20815;-72
2021/06/23 08:53:59;;;;;;;6.93;1.60;;;;;;;;;;5114054;27;20470;-72
2021/06/23 08:56:30;;;;;;;3.00;1.50;;;;;;;;;;5101088;27;20856;-72
2021/06/23 08:58:58;;;;;;;3.37;1.97;;;;;;;;;;5113840;27;20467;-71
2021/06/23 09:01:30;;;;;;;5.00;2.47;;;;;;;;;;5113734;27;20459;-71
2021/06/23 09:04:07;;;;;;;6.97;2.50;;;;;;;;;;5117539;27;20459;-71
2021/06/23 09:06:42;;;;;;;4.30;1.80;;;;;;;;;;5116154;27;20486;-70
2021/06/23 09:09:25;;;;;;;6.00;2.73;;;;;;;;;;5116086;27;20458;-73
2021/06/23 09:11:58;;;;;;;9.30;2.57;;;;;;;;;;5117053;27;20455;-72
2021/06/23 09:14:28;;;;;;;6.03;2.97;;;;;;;;;;5114591;27;20816;-70
2021/06/23 09:17:04;;;;;;;4.73;2.30;;;;;;;;;;5117167;27;21051;-70
2021/06/23 09:19:37;;;;;;;8.63;3.10;;;;;;;;;;5115444;27;20467;-70
2021/06/23 09:22:09;;;;;;;4.00;2.60;;;;;;;;;;5135262;27;20901;-70
2021/06/23 09:27:25;;;;;;;5.33;2.33;;;;;;;;;;5113306;27;20573;-69
2021/06/23 09:29:54;;;;;;;4.67;2.43;;;;;;;;;;5109728;27;20464;-70
2021/06/23 09:32:26;;;;;;;4.90;2.30;;;;;;;;;;5111466;28;20455;-70
2021/06/23 09:34:58;;;;;;;4.07;1.93;;;;;;;;;;5116550;27;20457;-70
2021/06/23 09:37:27;;;;;;;6.50;2.30;;;;;;;;;;5115547;27;20515;-69
2021/06/23 09:40:31;;;;;;;3.87;2.43;;;;;;;;;;5106594;28;20459;-69
2021/06/23 09:43:09;;;;;;;7.70;2.10;;;;;;;;;;5100258;28;20451;-70
2021/06/23 09:45:38;;;;;;;6.17;2.70;;;;;;;;;;5115827;27;20842;-71
2021/06/23 09:48:07;;;;;;;5.97;2.63;;;;;;;;;;5113547;27;20481;-71
2021/06/23 09:50:38;;;;;;;6.77;2.90;;;;;;;;;;5108407;27;20463;-71
2021/06/23 09:53:08;;;;;;;12.90;2.50;;;;;;;;;;5111044;27;20455;-71
2021/06/23 09:55:46;;;;;;;7.83;3.13;;;;;;;;;;5110736;27;20463;-71
2021/06/23 09:58:23;;;;;;;6.03;2.00;;;;;;;;;;5113670;27;20924;-70
2021/06/23 10:01:05;;;;;;;7.20;2.43;;;;;;;;;;5101143;28;20892;-71
2021/06/23 10:03:36;;;;;;;4.00;2.50;;;;;;;;;;5096939;28;20535;-71
2021/06/23 10:06:19;;;;;;;7.33;2.27;;;;;;;;;;5113454;27;20485;-71
2021/06/23 10:08:59;;;;;;;7.60;2.87;;;;;;;;;;5093347;28;20538;-72
2021/06/23 10:11:52;;;;;;;10.67;2.73;;;;;;;;;;5095984;28;20802;-72
2021/06/23 10:17:18;;;;;;;6.07;2.10;;;;;;;;;;5095748;28;20468;-72
2021/06/23 10:20:05;;;;;;;4.13;1.90;;;;;;;;;;5096065;28;20474;-72
2021/06/23 10:22:52;;;;;;;4.67;2.20;;;;;;;;;;5097719;27;20487;-71
2021/06/23 10:25:28;;;;;;;7.13;1.90;;;;;;;;;;5111338;27;20886;-72
2021/06/23 10:28:03;;;;;;;6.03;1.73;;;;;;;;;;5097491;28;20859;-72
2021/06/23 10:33:18;;;;;;;6.87;2.20;;;;;;;;;;5116023;27;20548;-71
2021/06/23 10:35:46;;;;;;;3.60;1.60;;;;;;;;;;5121292;27;20458;-70
2021/06/23 10:38:17;;;;;;;6.00;2.17;;;;;;;;;;5118398;27;20832;-70
2021/06/23 10:40:48;;;;;;;6.43;2.30;;;;;;;;;;5115731;27;20490;-71
2021/06/23 10:43:17;;;;;;;2.70;2.20;;;;;;;;;;5119315;27;20454;-70
2021/06/23 10:45:46;;;;;;;6.07;2.30;;;;;;;;;;5118735;27;20458;-70
2021/06/23 10:48:14;;;;;;;3.70;1.80;;;;;;;;;;5114979;27;20482;-69
2021/06/23 10:50:44;;;;;;;5.40;1.80;;;;;;;;;;5118005;27;20455;-71
2021/06/23 10:53:32;;;;;;;4.60;1.87;;;;;;;;;;5112865;27;20468;-71
2021/06/23 10:56:03;;;;;;;5.07;2.13;;;;;;;;;;5110746;27;20467;-71
2021/06/23 10:58:34;;;;;;;6.43;1.80;;;;;;;;;;5099057;28;20906;-70
2021/06/23 11:01:19;;;;;;;6.23;2.00;;;;;;;;;;5099891;28;20462;-70
2021/06/23 11:04:02;;;;;;;4.03;1.90;;;;;;;;;;5119740;27;20461;-71
2021/06/23 11:06:46;;;;;;;4.77;2.07;;;;;;;;;;5119522;27;20474;-71
2021/06/23 11:09:23;;;;;;;3.67;1.43;;;;;;;;;;5109470;27;20473;-70
2021/06/23 11:11:53;;;;;;;3.60;1.30;;;;;;;;;;5100756;28;20874;-73
2021/06/23 11:14:24;;;;;;;4.50;1.10;;;;;;;;;;5098687;28;20498;-72
2021/06/23 11:17:17;;;;;;;2.83;1.20;;;;;;;;;;5117151;27;21070;-73
2021/06/23 11:19:48;;;;;;;3.30;1.70;;;;;;;;;;5118728;27;20462;-73
2021/06/23 11:22:19;;;;;;;4.13;1.60;;;;;;;;;;5116854;27;20461;-72
2021/06/23 11:25:07;;;;;;;2.47;1.07;;;;;;;;;;5116527;27;20465;-72
2021/06/23 11:27:46;;;;;;;5.33;1.63;;;;;;;;;;5116405;27;20478;-72
2021/06/23 11:30:33;;;;;;;2.37;1.47;;;;;;;;;;5115119;27;20490;-71
2021/06/23 11:33:21;;;;;;;4.40;1.77;;;;;;;;;;5099379;28;20462;-71
2021/06/23 11:35:51;;;;;;;6.53;2.20;;;;;;;;;;5103104;27;20511;-71
2021/06/23 11:38:24;;;;;;;3.80;1.43;;;;;;;;;;5118425;27;20835;-71
2021/06/23 11:40:56;;;;;;;2.80;1.70;;;;;;;;;;5116913;27;20454;-73
2021/06/23 11:43:44;;;;;;;7.23;1.77;;;;;;;;;;5114470;27;20497;-72
2021/06/23 11:46:14;;;;;;;14.20;1.83;;;;;;;;;;5118285;27;20471;-71
2021/06/23 11:48:45;;;;;;;4.20;1.80;;;;;;;;;;5117378;27;20504;-71
2021/06/23 11:51:13;;;;;;;3.13;1.40;;;;;;;;;;5115933;27;20469;-72
2021/06/23 11:53:41;;;;;;;3.43;2.60;;;;;;;;;;5115241;27;20796;-73
2021/06/23 11:56:10;;;;;;;2.70;1.20;;;;;;;;;;5117148;27;20553;-72
2021/06/23 11:58:37;;;;;;;3.80;1.33;;;;;;;;;;5117097;27;20524;-72
2021/06/23 12:01:07;;;;;;;5.73;1.30;;;;;;;;;;5108468;27;20574;-71
2021/06/23 12:03:36;;;;;;;5.00;1.37;;;;;;;;;;5116068;27;20446;-72
2021/06/23 12:06:10;;;;;;;2.67;1.30;;;;;;;;;;5123670;27;20468;-69
2021/06/23 12:08:41;;;;;;;2.10;1.30;;;;;;;;;;5116695;27;20479;-71
2021/06/23 12:11:18;;;;;;;2.10;1.17;;;;;;;;;;5117131;27;20831;-71
2021/06/23 12:13:46;;;;;;;2.53;1.10;;;;;;;;;;5115839;27;20886;-72
2021/06/23 12:16:15;;;;;;;5.57;1.53;;;;;;;;;;5115924;27;20455;-73
2021/06/23 12:18:49;;;;;;;2.20;1.30;;;;;;;;;;5125259;27;20507;-72
2021/06/23 12:21:17;;;;;;;3.97;1.20;;;;;;;;;;5117215;27;20454;-71
2021/06/23 12:23:50;;;;;;;5.10;1.50;;;;;;;;;;5117676;27;20455;-72
2021/06/23 12:26:22;;;;;;;3.00;1.30;;;;;;;;;;5118509;27;20468;-72
2021/06/23 12:28:50;;;;;;;4.60;1.40;;;;;;;;;;5107003;27;20486;-71
2021/06/23 12:31:31;;;;;;;6.23;1.90;;;;;;;;;;5106282;27;20463;-72
2021/06/23 12:34:08;;;;;;;4.77;1.83;;;;;;;;;;5116555;27;20485;-71
2021/06/23 12:36:39;;;;;;;4.47;1.37;;;;;;;;;;5116953;27;20799;-72
2021/06/23 12:39:08;;;;;;;2.63;1.40;;;;;;;;;;5117342;27;21030;-71
2021/06/23 12:41:38;;;;;;;3.47;1.13;;;;;;;;;;5117502;27;20834;-70
2021/06/23 12:44:10;;;;;;;3.03;1.80;;;;;;;;;;5106950;28;20454;-72
2021/06/23 12:49:41;;;;;;;2.53;1.30;;;;;;;;;;5076390;28;20466;-71
2021/06/23 12:52:13;;;;;;;3.27;1.20;;;;;;;;;;5116363;27;20493;-70
2021/06/23 12:54:41;;;;;;;3.60;1.87;;;;;;;;;;5114456;27;20467;-70
2021/06/23 12:57:09;;;;;;;2.97;1.20;;;;;;;;;;5107207;28;20492;-69
2021/06/23 12:59:40;;;;;;;2.37;1.00;;;;;;;;;;5102237;27;20463;-70
2021/06/23 13:02:09;;;;;;;5.53;1.87;;;;;;;;;;5105029;27;20458;-70
2021/06/23 13:04:37;;;;;;;3.93;1.90;;;;;;;;;;5107121;27;20495;-71
2021/06/23 13:07:06;;;;;;;5.20;1.33;;;;;;;;;;5116152;27;20491;-70
2021/06/23 13:09:52;;;;;;;2.77;1.40;;;;;;;;;;5114318;27;20502;-70
2021/06/23 13:12:20;;;;;;;6.47;1.73;;;;;;;;;;5112523;27;20454;-70
2021/06/23 13:14:50;;;;;;;3.87;1.40;;;;;;;;;;5115518;27;20469;-71
2021/06/23 13:17:20;;;;;;;3.77;1.50;;;;;;;;;;5115445;27;20529;-71
2021/06/23 13:19:48;;;;;;;4.73;1.20;;;;;;;;;;5112347;28;20454;-71
2021/06/23 13:22:19;;;;;;;3.87;1.60;;;;;;;;;;5115690;27;20461;-71
2021/06/23 13:24:50;;;;;;;7.07;1.80;;;;;;;;;;5114528;27;20450;-71
2021/06/23 13:27:19;;;;;;;5.10;2.07;;;;;;;;;;5105949;27;20874;-71
2021/06/23 13:29:48;;;;;;;5.20;1.60;;;;;;;;;;5116292;27;20451;-72
2021/06/23 13:32:20;;;;;;;6.13;1.10;;;;;;;;;;5115571;27;20473;-72
2021/06/23 13:34:49;;;;;;;6.13;1.40;;;;;;;;;;5115243;27;20715;-71
2021/06/23 13:37:18;;;;;;;6.20;1.50;;;;;;;;;;5115677;27;20558;-70
2021/06/23 13:39:49;;;;;;;4.50;2.10;;;;;;;;;;5115874;27;20501;-72
2021/06/23 13:42:17;;;;;;;4.70;1.73;;;;;;;;;;5115804;27;20553;-72
2021/06/23 13:44:46;;;;;;;5.50;1.87;;;;;;;;;;5115754;27;20847;-71
2021/06/23 13:47:13;;;;;;;5.30;2.03;;;;;;;;;;5115371;27;20474;-73
2021/06/23 13:49:42;;;;;;;2.80;1.00;;;;;;;;;;5110089;28;20490;-71
2021/06/23 13:52:10;;;;;;;3.23;1.17;;;;;;;;;;5103282;27;20455;-70
2021/06/23 13:57:32;;;;;;;2.33;1.20;;;;;;;;;;5114919;27;20546;-71
2021/06/23 14:00:16;;;;;;;2.10;1.10;;;;;;;;;;5113429;27;20465;-70
2021/06/23 14:02:52;;;;;;;5.43;1.83;;;;;;;;;;5113153;27;20466;-71
2021/06/23 14:05:21;;;;;;;3.40;1.53;;;;;;;;;;5114957;27;20588;-72
2021/06/23 14:07:50;;;;;;;6.20;1.53;;;;;;;;;;5113839;27;20478;-71
2021/06/23 14:10:24;;;;;;;5.97;1.50;;;;;;;;;;5113802;27;20545;-70
2021/06/23 14:12:52;;;;;;;4.20;1.57;;;;;;;;;;5113624;27;20459;-72
2021/06/23 14:15:28;;;;;;;3.53;1.43;;;;;;;;;;5109511;27;20530;-72
2021/06/23 14:17:56;;;;;;;6.83;2.40;;;;;;;;;;5114348;27;20753;-71
2021/06/23 14:20:31;;;;;;;11.27;3.93;;;;;;;;;;5107726;27;20645;-72
2021/06/23 14:25:55;;;;;;;2.70;1.40;;;;;;;;;;5055474;28;20475;-73
2021/06/23 14:28:23;;;;;;;5.17;1.80;;;;;;;;;;5115187;27;20482;-72
2021/06/23 14:31:08;;;;;;;7.93;2.13;;;;;;;;;;5116214;27;20470;-72
2021/06/23 14:33:40;;;;;;;6.20;1.50;;;;;;;;;;5115493;27;20541;-72
2021/06/23 14:36:09;;;;;;;3.07;1.77;;;;;;;;;;5112069;27;20556;-71
2021/06/23 14:38:40;;;;;;;4.63;2.10;;;;;;;;;;5110441;28;20463;-72
2021/06/23 14:41:34;;;;;;;3.90;1.60;;;;;;;;;;5114169;27;20966;-71
2021/06/23 14:50:20;;;;;;;3.60;1.60;;;;;;;;;;5114846;27;20440;-72
2021/06/23 14:52:56;;;;;;;4.67;1.67;;;;;;;;;;5114806;27;20563;-72
2021/06/23 14:55:26;;;;;;;3.60;1.30;;;;;;;;;;5097022;28;20462;-72
2021/06/23 14:58:19;;;;;;;3.17;1.70;;;;;;;;;;5114494;27;20467;-73
2021/06/23 15:01:17;;;;;;;4.20;1.53;;;;;;;;;;5073717;28;20901;-71
2021/06/23 15:03:59;;;;;;;2.77;1.37;;;;;;;;;;5093176;27;20762;-72
2021/06/23 15:06:40;;;;;;;5.90;3.13;;;;;;;;;;5113270;27;20462;-75
2021/06/23 15:12:10;;;;;;;3.30;1.83;;;;;;;;;;5095497;28;20938;-71
2021/06/23 15:14:48;;;;;;;10.53;1.77;;;;;;;;;;5095247;28;20859;-71
2021/06/23 15:17:22;;;;;;;2.43;1.30;;;;;;;;;;5096748;28;20622;-71
2021/06/23 15:19:53;;;;;;;8.07;3.97;;;;;;;;;;5097799;28;20482;-72
2021/06/23 15:22:28;;;;;;;3.20;1.30;;;;;;;;;;5114121;27;20447;-72
2021/06/23 15:25:00;;;;;;;4.37;1.70;;;;;;;;;;5114825;27;20751;-71
2021/06/23 15:27:49;;;;;;;5.73;1.93;;;;;;;;;;5118020;27;20450;-71
2021/06/23 15:30:31;;;;;;;5.73;1.73;;;;;;;;;;5117824;27;20482;-72
2021/06/23 15:32:59;;;;;;;4.57;1.53;;;;;;;;;;5107407;27;21122;-71
2021/06/23 15:35:27;;;;;;;5.50;1.80;;;;;;;;;;5117977;27;20890;-72
2021/06/23 15:38:09;;;;;;;4.27;2.23;;;;;;;;;;5107926;27;20463;-71
2021/06/23 15:40:41;;;;;;;3.00;1.60;;;;;;;;;;5119225;27;20787;-72
2021/06/23 15:43:16;;;;;;;4.00;1.93;;;;;;;;;;5117803;27;20467;-70
2021/06/23 15:45:44;;;;;;;6.73;1.87;;;;;;;;;;5113497;27;20458;-71
2021/06/23 15:48:13;;;;;;;4.30;1.77;;;;;;;;;;5118221;27;20498;-70
2021/06/23 15:50:42;;;;;;;4.40;1.53;;;;;;;;;;5116459;27;20462;-70